createdAt,value
2022-12-25T00:01:15.424Z,9.32
2022-12-25T00:03:42.529Z,9.58
2022-12-25T00:06:09.210Z,9.92
2022-12-25T00:08:36.967Z,10.15
2022-12-25T00:11:06.876Z,9.68
2022-12-25T00:13:33.586Z,9.87
2022-12-25T00:16:00.399Z,9.87
2022-12-25T00:18:27.532Z,9.97
2022-12-25T00:21:02.475Z,9.71
2022-12-25T00:23:30.050Z,10.09
2022-12-25T00:25:57.413Z,9.61
2022-12-25T00:28:24.842Z,9.34
2022-12-25T00:30:51.980Z,9.24
2022-12-25T00:33:18.843Z,9.39
2022-12-25T00:35:45.802Z,9.52
2022-12-25T00:38:12.400Z,9.19
2022-12-25T00:40:44.203Z,9.58
2022-12-25T00:43:11.236Z,9.76
2022-12-25T00:45:42.877Z,9.63
2022-12-25T00:48:09.523Z,9.62
2022-12-25T00:50:38.785Z,9.99
2022-12-25T00:53:05.352Z,9.91
2022-12-25T00:55:35.903Z,10.18
2022-12-25T00:58:02.518Z,9.73
2022-12-25T01:00:29.123Z,10.00
2022-12-25T01:02:55.909Z,9.66
2022-12-25T01:05:22.560Z,9.72
2022-12-25T01:07:49.190Z,9.67
2022-12-25T01:10:25.037Z,9.82
2022-12-25T01:12:52.191Z,9.88
2022-12-25T01:15:19.497Z,9.94
2022-12-25T01:17:46.173Z,9.87
2022-12-25T01:20:15.472Z,10.17
2022-12-25T01:22:42.969Z,10.11
2022-12-25T01:25:10.890Z,9.78
2022-12-25T01:27:37.785Z,9.87
2022-12-25T01:30:05.117Z,9.92
2022-12-25T01:32:31.731Z,10.13
2022-12-25T01:34:58.351Z,9.76
2022-12-25T01:37:25.297Z,9.51
2022-12-25T01:39:52.008Z,9.49
2022-12-25T01:42:20.773Z,9.38
2022-12-25T01:44:47.369Z,9.50
2022-12-25T01:47:17.061Z,9.05
2022-12-25T01:49:48.130Z,8.98
2022-12-25T01:52:23.609Z,8.56
2022-12-25T01:54:58.868Z,9.06
2022-12-25T01:57:28.991Z,9.31
2022-12-25T01:59:57.656Z,8.92
2022-12-25T02:02:24.959Z,9.42
2022-12-25T02:05:00.823Z,8.89
2022-12-25T02:07:29.755Z,9.48
2022-12-25T02:09:56.371Z,9.22
2022-12-25T02:12:26.118Z,8.66
2022-12-25T02:15:04.638Z,8.83
2022-12-25T02:17:50.606Z,8.86
2022-12-25T02:20:35.820Z,8.86
2022-12-25T02:23:28.296Z,9.23
2022-12-25T02:26:12.895Z,9.39
2022-12-25T02:28:52.335Z,9.07
2022-12-25T02:31:31.602Z,9.28
2022-12-25T02:34:19.090Z,9.24
2022-12-25T02:36:48.237Z,9.04
2022-12-25T02:39:44.187Z,9.28
2022-12-25T02:42:17.894Z,9.29
2022-12-25T02:45:06.188Z,8.49
2022-12-25T02:47:52.688Z,9.30
2022-12-25T02:50:39.862Z,8.94
2022-12-25T02:53:27.432Z,9.08
2022-12-25T02:56:14.753Z,9.38
2022-12-25T02:59:07.034Z,9.16
2022-12-25T03:01:55.693Z,8.95
2022-12-25T03:04:44.686Z,9.11
2022-12-25T03:07:23.891Z,9.21
2022-12-25T03:10:16.128Z,9.48
2022-12-25T03:13:13.864Z,9.52
2022-12-25T03:15:59.051Z,9.42
2022-12-25T03:18:28.513Z,9.62
2022-12-25T03:21:14.311Z,9.58
2022-12-25T03:24:04.085Z,9.17
2022-12-25T03:26:49.621Z,9.18
2022-12-25T03:29:36.205Z,8.85
2022-12-25T03:32:16.250Z,8.46
2022-12-25T03:35:29.215Z,8.80
2022-12-25T03:38:57.290Z,8.72
2022-12-25T03:42:14.757Z,8.59
2022-12-25T03:45:24.144Z,8.35
2022-12-25T03:48:28.939Z,8.69
2022-12-25T03:51:25.604Z,8.53
2022-12-25T03:54:14.317Z,8.95
2022-12-25T03:57:01.215Z,8.95
2022-12-25T03:59:47.031Z,8.54
2022-12-25T04:02:32.500Z,8.67
2022-12-25T04:05:17.858Z,8.71
2022-12-25T04:08:03.860Z,8.51
2022-12-25T04:11:05.741Z,8.95
2022-12-25T04:13:51.121Z,8.84
2022-12-25T04:16:36.212Z,9.12
2022-12-25T04:19:21.307Z,8.62
2022-12-25T04:22:06.369Z,8.89
2022-12-25T04:24:51.403Z,8.91
2022-12-25T04:27:36.829Z,9.14
2022-12-25T04:30:22.120Z,9.43
2022-12-25T04:33:07.068Z,8.88
2022-12-25T04:35:52.266Z,8.95
2022-12-25T04:38:21.064Z,8.69
2022-12-25T04:40:47.741Z,9.22
2022-12-25T04:43:14.409Z,9.52
2022-12-25T04:45:40.979Z,8.99
2022-12-25T04:48:07.548Z,9.11
2022-12-25T04:50:34.126Z,9.00
2022-12-25T04:53:00.718Z,9.20
2022-12-25T04:55:27.350Z,9.17
2022-12-25T04:57:53.971Z,8.77
2022-12-25T05:00:20.729Z,9.20
2022-12-25T05:02:47.396Z,9.38
2022-12-25T05:05:14.199Z,9.31
2022-12-25T05:07:40.859Z,9.21
2022-12-25T05:10:08.049Z,9.37
2022-12-25T05:12:34.659Z,8.62
2022-12-25T05:15:02.339Z,8.72
2022-12-25T05:17:28.942Z,9.09
2022-12-25T05:19:55.638Z,9.03
2022-12-25T05:22:22.194Z,9.41
2022-12-25T05:24:48.912Z,8.95
2022-12-25T05:27:16.203Z,9.16
2022-12-25T05:29:45.533Z,9.11
2022-12-25T05:32:12.698Z,8.92
2022-12-25T05:34:39.343Z,9.15
2022-12-25T05:37:06.101Z,9.20
2022-12-25T05:39:32.779Z,9.05
2022-12-25T05:41:59.629Z,9.38
2022-12-25T05:44:26.252Z,9.13
2022-12-25T05:46:52.873Z,8.91
2022-12-25T05:49:19.492Z,8.94
2022-12-25T05:51:46.165Z,9.33
2022-12-25T05:54:12.761Z,9.09
2022-12-25T05:56:39.336Z,9.15
2022-12-25T05:59:11.038Z,8.87
2022-12-25T06:01:37.766Z,8.94
2022-12-25T06:04:10.165Z,8.76
2022-12-25T06:06:38.869Z,9.06
2022-12-25T06:09:07.913Z,8.56
2022-12-25T06:11:34.495Z,9.23
2022-12-25T06:14:01.226Z,9.51
2022-12-25T06:16:30.555Z,9.65
2022-12-25T06:19:02.274Z,9.30
2022-12-25T06:21:33.839Z,9.45
2022-12-25T06:24:01.439Z,9.59
2022-12-25T06:26:28.497Z,9.56
2022-12-25T06:28:55.045Z,9.67
2022-12-25T06:31:24.502Z,9.29
2022-12-25T06:33:51.149Z,8.98
2022-12-25T06:36:20.733Z,9.08
2022-12-25T06:38:47.674Z,8.99
2022-12-25T06:41:17.627Z,9.32
2022-12-25T06:43:48.483Z,9.02
2022-12-25T06:46:15.151Z,8.95
2022-12-25T06:48:47.954Z,9.08
2022-12-25T06:51:15.904Z,9.15
2022-12-25T06:53:42.566Z,9.13
2022-12-25T06:56:15.577Z,9.32
2022-12-25T06:58:44.061Z,9.25
2022-12-25T07:01:15.960Z,8.99
2022-12-25T07:03:45.209Z,9.10
2022-12-25T07:06:11.946Z,8.82
2022-12-25T07:08:38.748Z,8.82
2022-12-25T07:11:06.674Z,9.13
2022-12-25T07:13:42.516Z,9.30
2022-12-25T07:16:11.629Z,9.08
2022-12-25T07:18:46.282Z,8.99
2022-12-25T07:21:45.713Z,8.88
2022-12-25T07:24:20.744Z,9.36
2022-12-25T07:26:47.757Z,9.47
2022-12-25T07:29:17.334Z,9.51
2022-12-25T07:31:44.282Z,9.34
2022-12-25T07:34:10.934Z,9.47
2022-12-25T07:36:37.614Z,9.81
2022-12-25T07:39:04.486Z,9.59
2022-12-25T07:41:31.201Z,9.67
2022-12-25T07:43:57.896Z,8.95
2022-12-25T07:46:24.699Z,8.86
2022-12-25T07:48:51.871Z,9.41
2022-12-25T07:51:18.506Z,9.99
2022-12-25T07:53:54.514Z,9.78
2022-12-25T07:56:22.164Z,10.13
2022-12-25T07:58:49.176Z,9.83
2022-12-25T08:01:27.095Z,10.01
2022-12-25T08:04:01.705Z,10.43
2022-12-25T08:06:34.102Z,9.87
2022-12-25T08:09:07.671Z,9.72
2022-12-25T08:11:34.339Z,9.96
2022-12-25T08:14:04.708Z,9.52
2022-12-25T08:16:32.068Z,9.74
2022-12-25T08:19:03.402Z,9.76
2022-12-25T08:21:33.499Z,9.91
2022-12-25T08:24:03.326Z,10.28
2022-12-25T08:26:34.291Z,10.12
2022-12-25T08:29:06.743Z,10.17
2022-12-25T08:31:46.144Z,10.30
2022-12-25T08:34:19.055Z,10.05
2022-12-25T08:36:47.571Z,10.51
2022-12-25T08:39:14.271Z,10.49
2022-12-25T08:41:44.079Z,10.45
2022-12-25T08:44:15.577Z,10.84
2022-12-25T08:46:45.840Z,10.62
2022-12-25T08:49:12.748Z,10.58
2022-12-25T08:51:42.483Z,10.27
2022-12-25T08:54:12.204Z,10.63
2022-12-25T08:57:07.931Z,10.68
2022-12-25T08:59:34.711Z,10.95
2022-12-25T09:02:01.403Z,10.76
2022-12-25T09:04:36.170Z,10.96
2022-12-25T09:07:02.818Z,10.70
2022-12-25T09:09:29.498Z,10.82
2022-12-25T09:11:56.194Z,10.60
2022-12-25T09:14:22.839Z,11.09
2022-12-25T09:16:55.270Z,11.41
2022-12-25T09:19:22.185Z,11.15
2022-12-25T09:21:49.054Z,11.22
2022-12-25T09:24:15.671Z,10.96
2022-12-25T09:26:42.266Z,10.82
2022-12-25T09:29:08.833Z,11.10
2022-12-25T09:31:37.941Z,11.48
2022-12-25T09:34:04.591Z,11.65
2022-12-25T09:36:31.203Z,11.42
2022-12-25T09:38:57.820Z,11.35
2022-12-25T09:41:33.891Z,11.29
2022-12-25T09:44:06.271Z,11.24
2022-12-25T09:46:42.311Z,11.10
2022-12-25T09:49:36.280Z,11.22
2022-12-25T09:52:08.330Z,10.60
2022-12-25T09:54:44.354Z,11.36
2022-12-25T09:57:12.924Z,11.36
2022-12-25T09:59:41.929Z,11.43
2022-12-25T10:02:42.139Z,11.45
2022-12-25T10:05:30.228Z,11.66
2022-12-25T10:08:15.491Z,11.55
2022-12-25T10:10:59.984Z,11.77
2022-12-25T10:13:34.041Z,11.49
2022-12-25T10:16:25.359Z,11.49
2022-12-25T10:19:18.472Z,11.44
2022-12-25T10:21:46.252Z,11.57
2022-12-25T10:24:54.677Z,11.13
2022-12-25T10:27:34.329Z,11.35
2022-12-25T10:30:01.908Z,11.47
2022-12-25T10:32:28.616Z,11.30
2022-12-25T10:34:55.547Z,11.45
2022-12-25T10:37:22.181Z,11.86
2022-12-25T10:39:48.820Z,12.42
2022-12-25T10:42:40.878Z,12.07
2022-12-25T10:45:09.391Z,12.38
2022-12-25T10:47:41.992Z,12.01
2022-12-25T10:50:23.100Z,11.12
2022-12-25T10:52:58.636Z,11.43
2022-12-25T10:55:29.117Z,11.93
2022-12-25T10:57:57.804Z,12.35
2022-12-25T11:00:32.670Z,11.74
2022-12-25T11:02:59.923Z,11.90
2022-12-25T11:05:33.036Z,11.68
2022-12-25T11:08:01.858Z,12.04
2022-12-25T11:10:31.052Z,11.98
2022-12-25T11:13:04.437Z,12.43
2022-12-25T11:15:40.170Z,11.88
2022-12-25T11:18:27.126Z,11.67
2022-12-25T11:21:02.288Z,11.72
2022-12-25T11:23:31.209Z,11.47
2022-12-25T11:26:00.553Z,11.77
2022-12-25T11:28:28.704Z,11.66
2022-12-25T11:31:07.753Z,11.73
2022-12-25T11:33:56.304Z,11.77
2022-12-25T11:36:28.785Z,11.71
2022-12-25T11:38:56.240Z,11.79
2022-12-25T11:41:28.613Z,11.77
2022-12-25T11:44:05.046Z,11.50
2022-12-25T11:46:45.674Z,11.46
2022-12-25T11:49:18.772Z,11.63
2022-12-25T11:51:53.754Z,11.53
2022-12-25T11:54:29.701Z,11.43
2022-12-25T11:57:03.151Z,11.65
2022-12-25T11:59:44.981Z,11.97
2022-12-25T12:02:40.012Z,11.95
2022-12-25T12:05:15.117Z,11.94
2022-12-25T12:07:56.668Z,11.67
2022-12-25T12:10:48.228Z,12.01
2022-12-25T12:13:40.626Z,11.86
2022-12-25T12:16:14.014Z,11.35
2022-12-25T12:18:46.570Z,11.66
2022-12-25T12:21:16.489Z,11.57
2022-12-25T12:24:02.023Z,11.84
2022-12-25T12:26:30.761Z,12.04
2022-12-25T12:29:02.239Z,12.34
2022-12-25T12:31:44.796Z,11.72
2022-12-25T12:34:24.953Z,11.78
2022-12-25T12:36:56.870Z,11.25
2022-12-25T12:39:36.645Z,11.91
2022-12-25T12:42:16.916Z,11.95
2022-12-25T12:44:44.556Z,12.10
2022-12-25T12:47:44.745Z,12.37
2022-12-25T12:50:35.238Z,11.72
2022-12-25T12:53:41.347Z,11.97
2022-12-25T12:56:12.077Z,11.78
2022-12-25T12:58:50.248Z,11.81
2022-12-25T13:01:44.608Z,12.17
2022-12-25T13:04:41.673Z,11.87
2022-12-25T13:07:32.186Z,12.03
2022-12-25T13:10:19.754Z,12.63
2022-12-25T13:12:50.201Z,12.35
2022-12-25T13:15:18.379Z,11.61
2022-12-25T13:17:46.812Z,11.65
2022-12-25T13:20:24.049Z,11.55
2022-12-25T13:22:52.935Z,11.92
2022-12-25T13:25:22.454Z,11.73
2022-12-25T13:27:56.814Z,11.83
2022-12-25T13:30:24.538Z,12.05
2022-12-25T13:32:51.524Z,11.58
2022-12-25T13:35:21.183Z,12.06
2022-12-25T13:37:48.701Z,12.47
2022-12-25T13:40:23.452Z,12.27
2022-12-25T13:42:59.052Z,12.17
2022-12-25T13:45:28.860Z,11.96
2022-12-25T13:47:56.189Z,12.29
2022-12-25T13:50:28.446Z,12.47
2022-12-25T13:52:57.296Z,12.53
2022-12-25T13:55:25.836Z,12.38
2022-12-25T13:58:01.944Z,11.95
2022-12-25T14:00:38.790Z,11.93
2022-12-25T14:03:10.159Z,12.10
2022-12-25T14:05:42.826Z,12.25
2022-12-25T14:08:22.264Z,12.35
2022-12-25T14:10:51.735Z,12.20
2022-12-25T14:13:23.735Z,12.55
2022-12-25T14:15:51.337Z,12.36
2022-12-25T14:18:21.143Z,12.41
2022-12-25T14:21:12.205Z,12.52
2022-12-25T14:23:53.724Z,12.60
2022-12-25T14:26:31.051Z,12.50
2022-12-25T14:29:18.093Z,12.49
2022-12-25T14:31:47.418Z,12.46
2022-12-25T14:34:22.038Z,12.06
2022-12-25T14:36:50.713Z,12.26
2022-12-25T14:39:36.913Z,12.12
2022-12-25T14:42:24.660Z,11.67
2022-12-25T14:45:05.222Z,11.92
2022-12-25T14:47:39.109Z,12.22
2022-12-25T14:50:30.600Z,12.08
2022-12-25T14:53:03.594Z,12.07
2022-12-25T14:55:40.299Z,12.03
2022-12-25T14:58:13.007Z,12.11
2022-12-25T15:00:40.395Z,12.06
2022-12-25T15:03:23.902Z,12.10
2022-12-25T15:06:19.174Z,12.17
2022-12-25T15:08:57.017Z,12.06
2022-12-25T15:11:23.958Z,12.10
2022-12-25T15:13:50.810Z,11.66
2022-12-25T15:16:27.206Z,11.80
2022-12-25T15:18:54.573Z,11.60
2022-12-25T15:21:29.639Z,11.70
2022-12-25T15:23:58.049Z,11.83
2022-12-25T15:26:26.096Z,11.61
2022-12-25T15:28:52.770Z,11.64
2022-12-25T15:31:23.484Z,11.64
2022-12-25T15:33:50.522Z,11.67
2022-12-25T15:36:17.197Z,11.49
2022-12-25T15:38:44.516Z,11.22
2022-12-25T15:41:37.186Z,11.44
2022-12-25T15:44:05.897Z,10.97
2022-12-25T15:46:34.114Z,11.22
2022-12-25T15:49:01.142Z,11.04
2022-12-25T15:51:27.758Z,11.29
2022-12-25T15:53:54.505Z,11.49
2022-12-25T15:56:22.289Z,11.41
2022-12-25T15:58:49.458Z,11.32
2022-12-25T16:01:20.325Z,11.27
2022-12-25T16:03:47.660Z,11.21
2022-12-25T16:06:16.820Z,11.19
2022-12-25T16:08:43.586Z,10.95
2022-12-25T16:11:10.872Z,11.12
2022-12-25T16:13:38.104Z,11.19
2022-12-25T16:16:05.368Z,11.09
2022-12-25T16:18:32.033Z,11.35
2022-12-25T16:20:59.837Z,11.00
2022-12-25T16:23:26.761Z,10.95
2022-12-25T16:25:53.383Z,10.83
2022-12-25T16:28:19.952Z,11.08
2022-12-25T16:30:46.580Z,11.18
2022-12-25T16:33:13.223Z,10.82
2022-12-25T16:35:39.908Z,10.94
2022-12-25T16:38:06.849Z,11.16
2022-12-25T16:40:34.063Z,11.05
2022-12-25T16:43:00.756Z,11.21
2022-12-25T16:45:27.632Z,10.99
2022-12-25T16:47:55.787Z,10.81
2022-12-25T16:50:22.483Z,10.87
2022-12-25T16:52:49.089Z,10.96
2022-12-25T16:55:15.712Z,11.30
2022-12-25T16:57:42.369Z,11.26
2022-12-25T17:00:09.703Z,11.06
2022-12-25T17:02:36.499Z,11.12
2022-12-25T17:05:03.343Z,10.51
2022-12-25T17:07:29.921Z,10.41
2022-12-25T17:09:57.302Z,10.32
2022-12-25T17:12:23.863Z,10.70
2022-12-25T17:14:50.899Z,10.46
2022-12-25T17:17:17.476Z,10.72
2022-12-25T17:19:44.145Z,10.74
2022-12-25T17:22:10.962Z,10.83
2022-12-25T17:24:39.950Z,10.83
2022-12-25T17:27:08.712Z,10.56
2022-12-25T17:29:41.149Z,10.80
2022-12-25T17:32:08.881Z,10.85
2022-12-25T17:34:35.823Z,10.62
2022-12-25T17:37:05.440Z,10.92
2022-12-25T17:39:32.141Z,10.96
2022-12-25T17:41:58.992Z,10.87
2022-12-25T17:44:25.976Z,10.48
2022-12-25T17:46:53.098Z,10.87
2022-12-25T17:49:21.699Z,10.78
2022-12-25T17:51:48.911Z,10.82
2022-12-25T17:54:15.548Z,10.86
2022-12-25T17:56:42.222Z,10.48
2022-12-25T17:59:18.389Z,10.67
2022-12-25T18:01:46.899Z,10.65
2022-12-25T18:04:19.905Z,10.74
2022-12-25T18:06:46.776Z,11.06
2022-12-25T18:09:13.840Z,10.92
2022-12-25T18:11:42.252Z,10.69
2022-12-25T18:14:13.248Z,10.71
2022-12-25T18:16:43.355Z,10.78
2022-12-25T18:19:11.430Z,10.54
2022-12-25T18:21:38.325Z,10.25
2022-12-25T18:24:06.354Z,10.45
2022-12-25T18:26:33.491Z,10.46
2022-12-25T18:29:00.114Z,10.59
2022-12-25T18:31:30.383Z,10.48
2022-12-25T18:33:57.848Z,10.66
2022-12-25T18:36:26.451Z,10.47
2022-12-25T18:38:55.696Z,10.50
2022-12-25T18:41:23.243Z,10.34
2022-12-25T18:43:52.497Z,10.25
2022-12-25T18:46:26.055Z,10.33
2022-12-25T18:48:54.632Z,10.27
2022-12-25T18:51:21.341Z,10.02
2022-12-25T18:53:47.998Z,10.17
2022-12-25T18:56:17.284Z,10.28
2022-12-25T18:58:44.680Z,10.40
2022-12-25T19:01:15.309Z,10.35
2022-12-25T19:03:42.091Z,10.32
2022-12-25T19:06:08.751Z,10.30
2022-12-25T19:08:35.685Z,10.49
2022-12-25T19:11:06.718Z,10.22
2022-12-25T19:13:33.322Z,10.25
2022-12-25T19:16:00.029Z,10.27
2022-12-25T19:18:26.752Z,10.14
2022-12-25T19:20:53.499Z,10.26
2022-12-25T19:23:20.118Z,10.34
2022-12-25T19:25:46.873Z,10.26
2022-12-25T19:28:13.559Z,10.31
2022-12-25T19:30:45.195Z,10.08
2022-12-25T19:33:26.414Z,9.92
2022-12-25T19:35:53.095Z,9.98
2022-12-25T19:38:20.310Z,10.14
2022-12-25T19:41:00.583Z,9.99
2022-12-25T19:43:35.811Z,9.95
2022-12-25T19:46:02.929Z,10.19
2022-12-25T19:48:32.138Z,10.10
2022-12-25T19:50:58.873Z,10.30
2022-12-25T19:53:26.601Z,10.02
2022-12-25T19:55:54.156Z,9.98
2022-12-25T19:58:23.887Z,10.15
2022-12-25T20:01:01.534Z,9.97
2022-12-25T20:03:28.499Z,10.12
2022-12-25T20:05:55.979Z,10.20
2022-12-25T20:08:22.883Z,10.22
2022-12-25T20:10:54.864Z,10.23
2022-12-25T20:13:22.049Z,9.94
2022-12-25T20:15:49.153Z,9.69
2022-12-25T20:18:32.663Z,9.91
2022-12-25T20:21:06.649Z,9.92
2022-12-25T20:23:33.898Z,10.13
2022-12-25T20:26:06.891Z,9.95
2022-12-25T20:28:35.879Z,9.97
2022-12-25T20:31:07.060Z,10.09
2022-12-25T20:33:34.656Z,9.91
2022-12-25T20:36:02.625Z,9.62
2022-12-25T20:38:30.270Z,9.15
2022-12-25T20:41:26.344Z,9.60
2022-12-25T20:43:50.147Z,9.66
2022-12-25T20:46:18.331Z,9.91
2022-12-25T20:48:45.746Z,10.05
2022-12-25T20:51:16.295Z,9.95
2022-12-25T20:53:43.560Z,9.83
2022-12-25T20:56:12.077Z,10.00
2022-12-25T20:58:39.295Z,9.89
2022-12-25T21:01:12.848Z,9.95
2022-12-25T21:03:40.333Z,9.92
2022-12-25T21:06:07.882Z,9.02
2022-12-25T21:08:34.959Z,8.12
2022-12-25T21:11:08.423Z,8.29
2022-12-25T21:13:38.423Z,8.87
2022-12-25T21:16:07.643Z,9.23
2022-12-25T21:18:34.331Z,9.19
2022-12-25T21:21:06.805Z,9.39
2022-12-25T21:23:35.168Z,9.43
2022-12-25T21:26:21.479Z,9.32
2022-12-25T21:28:53.448Z,9.31
2022-12-25T21:31:21.663Z,9.42
2022-12-25T21:33:55.214Z,9.37
2022-12-25T21:36:23.506Z,9.21
2022-12-25T21:38:58.730Z,9.21
2022-12-25T21:41:26.578Z,9.17
2022-12-25T21:43:53.586Z,9.22
2022-12-25T21:46:20.475Z,9.21
2022-12-25T21:48:47.758Z,9.17
2022-12-25T21:51:38.603Z,9.15
2022-12-25T21:54:06.534Z,9.07
2022-12-25T21:56:41.439Z,9.05
2022-12-25T21:59:12.284Z,9.09
2022-12-25T22:01:39.078Z,9.03
2022-12-25T22:04:08.665Z,9.08
2022-12-25T22:06:54.378Z,9.08
2022-12-25T22:09:21.667Z,8.88
2022-12-25T22:12:06.715Z,9.00
2022-12-25T22:14:56.913Z,8.71
2022-12-25T22:17:51.436Z,7.46
2022-12-25T22:20:24.204Z,7.83
2022-12-25T22:22:51.633Z,8.29
2022-12-25T22:25:18.985Z,8.47
2022-12-25T22:27:47.330Z,8.61
2022-12-25T22:30:19.226Z,8.65
2022-12-25T22:32:46.453Z,8.67
2022-12-25T22:35:14.084Z,8.70
2022-12-25T22:37:42.056Z,8.68
2022-12-25T22:40:10.933Z,8.70
2022-12-25T22:42:37.614Z,8.67
2022-12-25T22:45:05.453Z,8.53
2022-12-25T22:47:32.297Z,8.55
2022-12-25T22:49:58.847Z,8.37
2022-12-25T22:52:25.537Z,8.18
2022-12-25T22:54:52.207Z,8.48
2022-12-25T22:57:18.893Z,8.46
2022-12-25T22:59:45.475Z,8.57
2022-12-25T23:02:12.166Z,8.53
2022-12-25T23:04:38.863Z,8.53
2022-12-25T23:07:05.518Z,8.53
2022-12-25T23:09:32.150Z,8.56
2022-12-25T23:11:59.668Z,8.60
2022-12-25T23:14:39.081Z,8.54
2022-12-25T23:17:31.553Z,8.22
2022-12-25T23:20:18.497Z,8.31
2022-12-25T23:23:04.986Z,8.37
2022-12-25T23:25:50.167Z,8.37
2022-12-25T23:28:36.798Z,8.38
2022-12-25T23:31:03.783Z,8.35
2022-12-25T23:33:30.684Z,8.40
2022-12-25T23:35:57.263Z,8.51
2022-12-25T23:38:23.827Z,8.50
2022-12-25T23:40:50.426Z,8.34
2022-12-25T23:43:17.043Z,8.20
2022-12-25T23:45:49.741Z,8.23
2022-12-25T23:48:16.430Z,8.05
2022-12-25T23:50:43.047Z,7.90
2022-12-25T23:53:10.329Z,8.23
2022-12-25T23:55:37.023Z,8.25
2022-12-25T23:58:03.907Z,8.14
